sensor_id;sensor_type;location;lat;lon;timestamp;P1;durP1;ratioP1;P2;durP2;ratioP2
209;SDS011;90;48.810;9.120;2024-02-26T00:00:22;3.33;;;3.10;;
209;SDS011;90;48.810;9.120;2024-02-26T00:02:49;3.23;;;3.03;;
209;SDS011;90;48.810;9.120;2024-02-26T00:05:15;3.67;;;3.47;;
209;SDS011;90;48.810;9.120;2024-02-26T00:07:42;3.50;;;3.30;;
209;SDS011;90;48.810;9.120;2024-02-26T00:10:10;8.37;;;3.40;;
209;SDS011;90;48.810;9.120;2024-02-26T00:12:36;3.70;;;3.57;;
209;SDS011;90;48.810;9.120;2024-02-26T00:15:05;3.37;;;2.90;;
209;SDS011;90;48.810;9.120;2024-02-26T00:17:32;2.80;;;2.60;;
209;SDS011;90;48.810;9.120;2024-02-26T00:19:59;3.40;;;3.10;;
209;SDS011;90;48.810;9.120;2024-02-26T00:22:29;6.30;;;3.10;;
209;SDS011;90;48.810;9.120;2024-02-26T00:24:55;3.00;;;2.80;;
209;SDS011;90;48.810;9.120;2024-02-26T00:27:22;3.20;;;3.00;;
209;SDS011;90;48.810;9.120;2024-02-26T00:29:49;3.40;;;3.20;;
209;SDS011;90;48.810;9.120;2024-02-26T00:32:17;3.23;;;3.00;;
209;SDS011;90;48.810;9.120;2024-02-26T00:34:43;3.10;;;2.90;;
209;SDS011;90;48.810;9.120;2024-02-26T00:37:10;3.30;;;2.63;;
209;SDS011;90;48.810;9.120;2024-02-26T00:39:37;5.63;;;3.50;;
209;SDS011;90;48.810;9.120;2024-02-26T00:42:04;2.67;;;2.50;;
209;SDS011;90;48.810;9.120;2024-02-26T00:44:31;3.13;;;2.92;;
209;SDS011;90;48.810;9.120;2024-02-26T00:46:58;5.40;;;2.97;;
209;SDS011;90;48.810;9.120;2024-02-26T00:49:26;3.30;;;3.10;;
209;SDS011;90;48.810;9.120;2024-02-26T00:51:52;3.13;;;2.93;;
209;SDS011;90;48.810;9.120;2024-02-26T00:54:19;3.43;;;3.23;;
209;SDS011;90;48.810;9.120;2024-02-26T00:56:46;3.27;;;2.40;;
209;SDS011;90;48.810;9.120;2024-02-26T00:59:12;2.83;;;2.63;;
209;SDS011;90;48.810;9.120;2024-02-26T01:01:39;2.90;;;2.70;;
209;SDS011;90;48.810;9.120;2024-02-26T01:04:06;2.83;;;2.63;;
209;SDS011;90;48.810;9.120;2024-02-26T01:06:34;3.40;;;3.20;;
209;SDS011;90;48.810;9.120;2024-02-26T01:09:00;3.40;;;3.00;;
209;SDS011;90;48.810;9.120;2024-02-26T01:11:27;3.17;;;2.97;;
209;SDS011;90;48.810;9.120;2024-02-26T01:13:54;4.13;;;2.90;;
209;SDS011;90;48.810;9.120;2024-02-26T01:16:21;3.43;;;2.90;;
209;SDS011;90;48.810;9.120;2024-02-26T01:18:48;2.80;;;2.60;;
209;SDS011;90;48.810;9.120;2024-02-26T01:21:15;5.17;;;3.70;;
209;SDS011;90;48.810;9.120;2024-02-26T01:23:43;3.17;;;2.70;;
209;SDS011;90;48.810;9.120;2024-02-26T01:26:09;3.10;;;2.90;;
209;SDS011;90;48.810;9.120;2024-02-26T01:28:36;3.43;;;3.10;;
209;SDS011;90;48.810;9.120;2024-02-26T01:31:03;3.63;;;3.40;;
209;SDS011;90;48.810;9.120;2024-02-26T01:33:31;4.15;;;2.72;;
209;SDS011;90;48.810;9.120;2024-02-26T01:35:57;3.00;;;2.80;;
209;SDS011;90;48.810;9.120;2024-02-26T01:38:25;3.70;;;3.40;;
209;SDS011;90;48.810;9.120;2024-02-26T01:40:53;4.77;;;3.60;;
209;SDS011;90;48.810;9.120;2024-02-26T01:43:20;4.07;;;3.13;;
209;SDS011;90;48.810;9.120;2024-02-26T01:45:47;3.10;;;2.90;;
209;SDS011;90;48.810;9.120;2024-02-26T01:48:14;4.27;;;2.90;;
209;SDS011;90;48.810;9.120;2024-02-26T01:50:41;2.87;;;2.67;;
209;SDS011;90;48.810;9.120;2024-02-26T01:53:07;3.20;;;3.00;;
209;SDS011;90;48.810;9.120;2024-02-26T01:55:36;3.80;;;2.80;;
209;SDS011;90;48.810;9.120;2024-02-26T01:58:04;3.87;;;2.80;;
209;SDS011;90;48.810;9.120;2024-02-26T02:00:31;2.90;;;2.70;;
209;SDS011;90;48.810;9.120;2024-02-26T02:02:58;3.33;;;3.13;;
209;SDS011;90;48.810;9.120;2024-02-26T02:05:25;5.87;;;3.00;;
209;SDS011;90;48.810;9.120;2024-02-26T02:07:52;3.37;;;3.20;;
209;SDS011;90;48.810;9.120;2024-02-26T02:10:20;4.50;;;3.50;;
209;SDS011;90;48.810;9.120;2024-02-26T02:12:50;4.67;;;3.40;;
209;SDS011;90;48.810;9.120;2024-02-26T02:15:18;3.40;;;3.20;;
209;SDS011;90;48.810;9.120;2024-02-26T02:17:46;3.23;;;3.03;;
209;SDS011;90;48.810;9.120;2024-02-26T02:20:14;3.85;;;3.25;;
209;SDS011;90;48.810;9.120;2024-02-26T02:22:44;4.73;;;3.47;;
209;SDS011;90;48.810;9.120;2024-02-26T02:25:10;3.33;;;3.13;;
209;SDS011;90;48.810;9.120;2024-02-26T02:27:37;3.93;;;3.20;;
209;SDS011;90;48.810;9.120;2024-02-26T02:30:05;4.10;;;3.00;;
209;SDS011;90;48.810;9.120;2024-02-26T02:32:33;3.70;;;3.50;;
209;SDS011;90;48.810;9.120;2024-02-26T02:35:01;3.40;;;3.20;;
209;SDS011;90;48.810;9.120;2024-02-26T02:37:28;7.83;;;4.20;;
209;SDS011;90;48.810;9.120;2024-02-26T02:39:56;5.40;;;3.70;;
209;SDS011;90;48.810;9.120;2024-02-26T02:42:23;4.10;;;3.90;;
209;SDS011;90;48.810;9.120;2024-02-26T02:44:50;6.33;;;3.80;;
209;SDS011;90;48.810;9.120;2024-02-26T02:47:17;5.90;;;3.80;;
209;SDS011;90;48.810;9.120;2024-02-26T02:49:44;4.20;;;3.60;;
209;SDS011;90;48.810;9.120;2024-02-26T02:52:10;7.03;;;4.17;;
209;SDS011;90;48.810;9.120;2024-02-26T02:54:37;3.53;;;3.30;;
209;SDS011;90;48.810;9.120;2024-02-26T02:57:08;3.50;;;3.17;;
209;SDS011;90;48.810;9.120;2024-02-26T02:59:35;3.90;;;3.30;;
209;SDS011;90;48.810;9.120;2024-02-26T03:02:01;3.60;;;3.20;;
209;SDS011;90;48.810;9.120;2024-02-26T03:04:28;3.90;;;2.83;;
209;SDS011;90;48.810;9.120;2024-02-26T03:06:55;4.33;;;3.33;;
209;SDS011;90;48.810;9.120;2024-02-26T03:09:22;4.40;;;3.23;;
209;SDS011;90;48.810;9.120;2024-02-26T03:11:49;3.50;;;3.30;;
209;SDS011;90;48.810;9.120;2024-02-26T03:14:17;3.00;;;2.80;;
209;SDS011;90;48.810;9.120;2024-02-26T03:16:44;2.73;;;2.57;;
209;SDS011;90;48.810;9.120;2024-02-26T03:19:10;2.60;;;2.40;;
209;SDS011;90;48.810;9.120;2024-02-26T03:21:40;2.67;;;2.47;;
209;SDS011;90;48.810;9.120;2024-02-26T03:24:06;2.73;;;2.00;;
209;SDS011;90;48.810;9.120;2024-02-26T03:26:35;2.70;;;2.03;;
209;SDS011;90;48.810;9.120;2024-02-26T03:29:02;3.40;;;2.03;;
209;SDS011;90;48.810;9.120;2024-02-26T03:31:30;2.63;;;2.43;;
209;SDS011;90;48.810;9.120;2024-02-26T03:33:56;2.43;;;2.20;;
209;SDS011;90;48.810;9.120;2024-02-26T03:36:23;2.57;;;2.37;;
209;SDS011;90;48.810;9.120;2024-02-26T03:38:50;2.63;;;2.43;;
209;SDS011;90;48.810;9.120;2024-02-26T03:41:17;4.83;;;2.97;;
209;SDS011;90;48.810;9.120;2024-02-26T03:43:43;2.50;;;2.30;;
209;SDS011;90;48.810;9.120;2024-02-26T03:46:10;2.37;;;2.10;;
209;SDS011;90;48.810;9.120;2024-02-26T03:48:40;2.20;;;1.90;;
209;SDS011;90;48.810;9.120;2024-02-26T03:51:08;1.90;;;1.80;;
209;SDS011;90;48.810;9.120;2024-02-26T03:53:34;3.00;;;2.10;;
209;SDS011;90;48.810;9.120;2024-02-26T03:56:02;2.50;;;2.23;;
209;SDS011;90;48.810;9.120;2024-02-26T03:58:30;2.20;;;1.88;;
209;SDS011;90;48.810;9.120;2024-02-26T04:00:56;2.70;;;2.23;;
209;SDS011;90;48.810;9.120;2024-02-26T04:03:23;10.90;;;2.60;;
209;SDS011;90;48.810;9.120;2024-02-26T04:05:51;2.50;;;2.30;;
209;SDS011;90;48.810;9.120;2024-02-26T04:08:18;3.00;;;2.50;;
209;SDS011;90;48.810;9.120;2024-02-26T04:10:45;2.63;;;2.10;;
209;SDS011;90;48.810;9.120;2024-02-26T04:13:12;5.10;;;3.10;;
209;SDS011;90;48.810;9.120;2024-02-26T04:15:38;6.13;;;3.50;;
209;SDS011;90;48.810;9.120;2024-02-26T04:18:05;3.63;;;3.50;;
209;SDS011;90;48.810;9.120;2024-02-26T04:20:32;4.27;;;3.47;;
209;SDS011;90;48.810;9.120;2024-02-26T04:23:00;4.63;;;3.33;;
209;SDS011;90;48.810;9.120;2024-02-26T04:25:26;4.03;;;3.70;;
209;SDS011;90;48.810;9.120;2024-02-26T04:27:53;3.80;;;3.60;;
209;SDS011;90;48.810;9.120;2024-02-26T04:30:20;3.93;;;3.40;;
209;SDS011;90;48.810;9.120;2024-02-26T04:32:47;5.30;;;4.13;;
209;SDS011;90;48.810;9.120;2024-02-26T04:35:13;3.63;;;3.47;;
209;SDS011;90;48.810;9.120;2024-02-26T04:37:40;6.40;;;3.33;;
209;SDS011;90;48.810;9.120;2024-02-26T04:40:09;3.53;;;3.33;;
209;SDS011;90;48.810;9.120;2024-02-26T04:42:36;3.47;;;3.20;;
209;SDS011;90;48.810;9.120;2024-02-26T04:45:03;3.43;;;3.30;;
209;SDS011;90;48.810;9.120;2024-02-26T04:47:30;3.30;;;3.10;;
209;SDS011;90;48.810;9.120;2024-02-26T04:49:56;2.97;;;2.80;;
209;SDS011;90;48.810;9.120;2024-02-26T04:52:23;3.83;;;3.70;;
209;SDS011;90;48.810;9.120;2024-02-26T04:54:50;4.07;;;3.10;;
209;SDS011;90;48.810;9.120;2024-02-26T04:57:18;3.20;;;3.00;;
209;SDS011;90;48.810;9.120;2024-02-26T04:59:44;3.33;;;3.13;;
209;SDS011;90;48.810;9.120;2024-02-26T05:02:11;5.10;;;3.50;;
209;SDS011;90;48.810;9.120;2024-02-26T05:04:38;3.20;;;2.97;;
209;SDS011;90;48.810;9.120;2024-02-26T05:07:04;4.63;;;3.77;;
209;SDS011;90;48.810;9.120;2024-02-26T05:09:31;3.00;;;2.80;;
209;SDS011;90;48.810;9.120;2024-02-26T05:11:58;3.67;;;3.47;;
209;SDS011;90;48.810;9.120;2024-02-26T05:14:26;3.67;;;3.47;;
209;SDS011;90;48.810;9.120;2024-02-26T05:16:52;3.50;;;3.30;;
209;SDS011;90;48.810;9.120;2024-02-26T05:19:19;3.07;;;2.93;;
209;SDS011;90;48.810;9.120;2024-02-26T05:21:46;3.53;;;3.20;;
209;SDS011;90;48.810;9.120;2024-02-26T05:24:14;3.40;;;3.20;;
209;SDS011;90;48.810;9.120;2024-02-26T05:26:42;3.60;;;3.40;;
209;SDS011;90;48.810;9.120;2024-02-26T05:29:09;3.97;;;3.77;;
209;SDS011;90;48.810;9.120;2024-02-26T05:31:37;4.40;;;3.90;;
209;SDS011;90;48.810;9.120;2024-02-26T05:34:03;3.67;;;3.27;;
209;SDS011;90;48.810;9.120;2024-02-26T05:36:30;4.17;;;3.67;;
209;SDS011;90;48.810;9.120;2024-02-26T05:38:58;3.50;;;3.30;;
209;SDS011;90;48.810;9.120;2024-02-26T05:41:25;3.33;;;3.13;;
209;SDS011;90;48.810;9.120;2024-02-26T05:43:52;3.60;;;3.13;;
209;SDS011;90;48.810;9.120;2024-02-26T05:46:18;4.87;;;3.67;;
209;SDS011;90;48.810;9.120;2024-02-26T05:48:48;3.40;;;3.20;;
209;SDS011;90;48.810;9.120;2024-02-26T05:51:16;4.20;;;3.50;;
209;SDS011;90;48.810;9.120;2024-02-26T05:53:42;4.93;;;3.30;;
209;SDS011;90;48.810;9.120;2024-02-26T05:56:09;4.33;;;3.27;;
209;SDS011;90;48.810;9.120;2024-02-26T05:58:36;3.37;;;3.17;;
209;SDS011;90;48.810;9.120;2024-02-26T06:01:03;6.03;;;3.43;;
209;SDS011;90;48.810;9.120;2024-02-26T06:03:29;3.90;;;3.70;;
209;SDS011;90;48.810;9.120;2024-02-26T06:05:57;3.70;;;3.50;;
209;SDS011;90;48.810;9.120;2024-02-26T06:08:24;3.70;;;3.37;;
209;SDS011;90;48.810;9.120;2024-02-26T06:10:51;4.33;;;3.10;;
209;SDS011;90;48.810;9.120;2024-02-26T06:13:17;4.20;;;3.23;;
209;SDS011;90;48.810;9.120;2024-02-26T06:15:44;3.77;;;3.60;;
209;SDS011;90;48.810;9.120;2024-02-26T06:18:11;4.13;;;3.20;;
209;SDS011;90;48.810;9.120;2024-02-26T06:20:37;3.70;;;3.50;;
209;SDS011;90;48.810;9.120;2024-02-26T06:23:06;3.63;;;3.30;;
209;SDS011;90;48.810;9.120;2024-02-26T06:25:33;5.50;;;4.07;;
209;SDS011;90;48.810;9.120;2024-02-26T06:28:00;3.60;;;3.40;;
209;SDS011;90;48.810;9.120;2024-02-26T06:30:27;4.37;;;3.53;;
209;SDS011;90;48.810;9.120;2024-02-26T06:32:53;3.87;;;3.67;;
209;SDS011;90;48.810;9.120;2024-02-26T06:35:20;3.40;;;2.00;;
209;SDS011;90;48.810;9.120;2024-02-26T06:37:47;3.70;;;3.50;;
209;SDS011;90;48.810;9.120;2024-02-26T06:40:17;3.00;;;2.80;;
209;SDS011;90;48.810;9.120;2024-02-26T06:42:43;3.73;;;3.53;;
209;SDS011;90;48.810;9.120;2024-02-26T06:45:10;5.00;;;4.23;;
209;SDS011;90;48.810;9.120;2024-02-26T06:47:37;3.40;;;3.23;;
209;SDS011;90;48.810;9.120;2024-02-26T06:50:04;5.57;;;3.33;;
209;SDS011;90;48.810;9.120;2024-02-26T06:52:31;3.87;;;3.67;;
209;SDS011;90;48.810;9.120;2024-02-26T06:54:57;3.60;;;3.07;;
209;SDS011;90;48.810;9.120;2024-02-26T06:57:25;5.00;;;3.30;;
209;SDS011;90;48.810;9.120;2024-02-26T06:59:52;3.23;;;3.03;;
209;SDS011;90;48.810;9.120;2024-02-26T07:02:19;2.90;;;2.70;;
209;SDS011;90;48.810;9.120;2024-02-26T07:04:45;3.10;;;2.90;;
209;SDS011;90;48.810;9.120;2024-02-26T07:07:12;3.10;;;2.90;;
209;SDS011;90;48.810;9.120;2024-02-26T07:09:41;3.10;;;2.90;;
209;SDS011;90;48.810;9.120;2024-02-26T07:12:08;3.28;;;2.80;;
209;SDS011;90;48.810;9.120;2024-02-26T07:14:36;4.67;;;3.40;;
209;SDS011;90;48.810;9.120;2024-02-26T07:17:03;4.50;;;2.90;;
209;SDS011;90;48.810;9.120;2024-02-26T07:19:29;2.73;;;2.53;;
209;SDS011;90;48.810;9.120;2024-02-26T07:21:56;3.10;;;2.90;;
209;SDS011;90;48.810;9.120;2024-02-26T07:24:23;3.70;;;3.30;;
209;SDS011;90;48.810;9.120;2024-02-26T07:26:49;3.67;;;3.50;;
209;SDS011;90;48.810;9.120;2024-02-26T07:29:16;4.80;;;3.70;;
209;SDS011;90;48.810;9.120;2024-02-26T07:31:44;5.80;;;3.77;;
209;SDS011;90;48.810;9.120;2024-02-26T07:34:11;4.90;;;3.70;;
209;SDS011;90;48.810;9.120;2024-02-26T07:36:38;6.13;;;3.50;;
209;SDS011;90;48.810;9.120;2024-02-26T07:39:05;2.97;;;2.80;;
209;SDS011;90;48.810;9.120;2024-02-26T07:41:32;3.37;;;3.17;;
209;SDS011;90;48.810;9.120;2024-02-26T07:43:59;3.00;;;2.80;;
209;SDS011;90;48.810;9.120;2024-02-26T07:46:25;2.90;;;2.70;;
209;SDS011;90;48.810;9.120;2024-02-26T07:48:53;3.67;;;2.90;;
209;SDS011;90;48.810;9.120;2024-02-26T07:51:20;3.63;;;3.43;;
209;SDS011;90;48.810;9.120;2024-02-26T07:53:47;4.18;;;2.80;;
209;SDS011;90;48.810;9.120;2024-02-26T07:56:15;3.43;;;3.07;;
209;SDS011;90;48.810;9.120;2024-02-26T07:58:41;3.83;;;3.67;;
209;SDS011;90;48.810;9.120;2024-02-26T08:01:08;3.17;;;2.97;;
209;SDS011;90;48.810;9.120;2024-02-26T08:03:36;3.83;;;3.63;;
209;SDS011;90;48.810;9.120;2024-02-26T08:06:05;4.87;;;3.50;;
209;SDS011;90;48.810;9.120;2024-02-26T08:08:31;8.80;;;3.40;;
209;SDS011;90;48.810;9.120;2024-02-26T08:10:58;6.60;;;3.50;;
209;SDS011;90;48.810;9.120;2024-02-26T08:13:25;3.20;;;2.90;;
209;SDS011;90;48.810;9.120;2024-02-26T08:15:52;3.87;;;3.67;;
209;SDS011;90;48.810;9.120;2024-02-26T08:18:19;3.40;;;3.20;;
209;SDS011;90;48.810;9.120;2024-02-26T08:20:45;5.17;;;4.10;;
209;SDS011;90;48.810;9.120;2024-02-26T08:23:15;6.37;;;4.87;;
209;SDS011;90;48.810;9.120;2024-02-26T08:25:41;6.27;;;4.63;;
209;SDS011;90;48.810;9.120;2024-02-26T08:28:08;10.13;;;4.83;;
209;SDS011;90;48.810;9.120;2024-02-26T08:30:36;7.33;;;5.33;;
209;SDS011;90;48.810;9.120;2024-02-26T08:33:02;9.10;;;5.70;;
209;SDS011;90;48.810;9.120;2024-02-26T08:35:29;7.03;;;5.80;;
209;SDS011;90;48.810;9.120;2024-02-26T08:37:56;12.13;;;6.00;;
209;SDS011;90;48.810;9.120;2024-02-26T08:40:24;13.27;;;6.00;;
209;SDS011;90;48.810;9.120;2024-02-26T08:42:51;8.07;;;5.80;;
209;SDS011;90;48.810;9.120;2024-02-26T08:45:18;10.97;;;6.50;;
209;SDS011;90;48.810;9.120;2024-02-26T08:47:45;12.00;;;6.50;;
209;SDS011;90;48.810;9.120;2024-02-26T08:50:11;11.80;;;6.13;;
209;SDS011;90;48.810;9.120;2024-02-26T08:52:40;9.93;;;6.23;;
209;SDS011;90;48.810;9.120;2024-02-26T08:55:07;7.87;;;5.80;;
209;SDS011;90;48.810;9.120;2024-02-26T08:57:36;7.13;;;5.53;;
209;SDS011;90;48.810;9.120;2024-02-26T09:00:03;6.53;;;5.90;;
209;SDS011;90;48.810;9.120;2024-02-26T09:02:32;5.93;;;5.57;;
209;SDS011;90;48.810;9.120;2024-02-26T09:04:58;6.83;;;5.40;;
209;SDS011;90;48.810;9.120;2024-02-26T09:07:25;8.37;;;5.03;;
209;SDS011;90;48.810;9.120;2024-02-26T09:09:52;8.90;;;5.60;;
209;SDS011;90;48.810;9.120;2024-02-26T09:12:19;7.03;;;4.77;;
209;SDS011;90;48.810;9.120;2024-02-26T09:14:47;6.57;;;5.77;;
209;SDS011;90;48.810;9.120;2024-02-26T09:17:14;5.90;;;4.70;;
209;SDS011;90;48.810;9.120;2024-02-26T09:19:40;5.10;;;4.60;;
209;SDS011;90;48.810;9.120;2024-02-26T09:22:09;7.10;;;4.47;;
209;SDS011;90;48.810;9.120;2024-02-26T09:24:36;6.07;;;5.20;;
209;SDS011;90;48.810;9.120;2024-02-26T09:27:03;7.37;;;4.33;;
209;SDS011;90;48.810;9.120;2024-02-26T09:29:29;5.80;;;4.23;;
209;SDS011;90;48.810;9.120;2024-02-26T09:31:58;6.60;;;4.70;;
209;SDS011;90;48.810;9.120;2024-02-26T09:34:24;5.80;;;4.50;;
209;SDS011;90;48.810;9.120;2024-02-26T09:36:51;7.73;;;5.17;;
209;SDS011;90;48.810;9.120;2024-02-26T09:39:18;6.50;;;4.83;;
209;SDS011;90;48.810;9.120;2024-02-26T09:41:46;13.37;;;5.30;;
209;SDS011;90;48.810;9.120;2024-02-26T09:44:14;7.40;;;5.10;;
209;SDS011;90;48.810;9.120;2024-02-26T09:46:45;15.20;;;5.90;;
209;SDS011;90;48.810;9.120;2024-02-26T09:49:15;10.93;;;5.73;;
209;SDS011;90;48.810;9.120;2024-02-26T09:51:42;8.87;;;5.70;;
209;SDS011;90;48.810;9.120;2024-02-26T09:54:09;9.83;;;5.37;;
209;SDS011;90;48.810;9.120;2024-02-26T09:56:36;9.57;;;5.60;;
209;SDS011;90;48.810;9.120;2024-02-26T09:59:05;11.30;;;5.70;;
209;SDS011;90;48.810;9.120;2024-02-26T10:01:36;8.50;;;5.23;;
209;SDS011;90;48.810;9.120;2024-02-26T10:04:06;7.77;;;5.70;;
209;SDS011;90;48.810;9.120;2024-02-26T10:06:37;7.97;;;5.47;;
209;SDS011;90;48.810;9.120;2024-02-26T10:09:04;8.60;;;6.40;;
209;SDS011;90;48.810;9.120;2024-02-26T10:11:34;14.47;;;6.30;;
209;SDS011;90;48.810;9.120;2024-02-26T10:14:01;8.70;;;6.70;;
209;SDS011;90;48.810;9.120;2024-02-26T10:16:28;13.07;;;6.50;;
209;SDS011;90;48.810;9.120;2024-02-26T10:18:56;8.37;;;5.97;;
209;SDS011;90;48.810;9.120;2024-02-26T10:21:23;8.97;;;6.00;;
209;SDS011;90;48.810;9.120;2024-02-26T10:23:51;9.67;;;5.90;;
209;SDS011;90;48.810;9.120;2024-02-26T10:26:19;7.30;;;5.33;;
209;SDS011;90;48.810;9.120;2024-02-26T10:28:47;8.40;;;6.00;;
209;SDS011;90;48.810;9.120;2024-02-26T10:31:13;5.87;;;5.23;;
209;SDS011;90;48.810;9.120;2024-02-26T10:33:40;9.37;;;5.47;;
209;SDS011;90;48.810;9.120;2024-02-26T10:36:08;10.17;;;5.57;;
209;SDS011;90;48.810;9.120;2024-02-26T10:38:35;7.77;;;5.07;;
209;SDS011;90;48.810;9.120;2024-02-26T10:41:04;9.00;;;5.50;;
209;SDS011;90;48.810;9.120;2024-02-26T10:43:33;10.37;;;4.47;;
209;SDS011;90;48.810;9.120;2024-02-26T10:46:00;4.93;;;4.67;;
209;SDS011;90;48.810;9.120;2024-02-26T10:48:26;5.67;;;3.80;;
209;SDS011;90;48.810;9.120;2024-02-26T10:50:53;4.83;;;4.07;;
209;SDS011;90;48.810;9.120;2024-02-26T10:53:22;3.90;;;3.70;;
209;SDS011;90;48.810;9.120;2024-02-26T10:55:52;4.43;;;3.70;;
209;SDS011;90;48.810;9.120;2024-02-26T10:58:26;3.70;;;3.50;;
209;SDS011;90;48.810;9.120;2024-02-26T11:00:54;3.90;;;3.70;;
209;SDS011;90;48.810;9.120;2024-02-26T11:03:23;4.97;;;3.30;;
209;SDS011;90;48.810;9.120;2024-02-26T11:05:51;4.60;;;3.53;;
209;SDS011;90;48.810;9.120;2024-02-26T11:08:18;4.00;;;3.10;;
209;SDS011;90;48.810;9.120;2024-02-26T11:10:47;4.83;;;3.40;;
209;SDS011;90;48.810;9.120;2024-02-26T11:13:14;4.53;;;3.63;;
209;SDS011;90;48.810;9.120;2024-02-26T11:15:44;4.20;;;3.67;;
209;SDS011;90;48.810;9.120;2024-02-26T11:18:13;3.27;;;3.10;;
209;SDS011;90;48.810;9.120;2024-02-26T11:20:41;3.97;;;2.97;;
209;SDS011;90;48.810;9.120;2024-02-26T11:23:09;3.17;;;2.70;;
209;SDS011;90;48.810;9.120;2024-02-26T11:25:38;4.17;;;2.77;;
209;SDS011;90;48.810;9.120;2024-02-26T11:28:08;3.00;;;2.90;;
209;SDS011;90;48.810;9.120;2024-02-26T11:30:39;3.80;;;2.90;;
209;SDS011;90;48.810;9.120;2024-02-26T11:33:10;5.23;;;3.00;;
209;SDS011;90;48.810;9.120;2024-02-26T11:35:38;3.47;;;3.17;;
209;SDS011;90;48.810;9.120;2024-02-26T11:38:05;4.40;;;3.20;;
209;SDS011;90;48.810;9.120;2024-02-26T11:40:33;9.83;;;4.03;;
209;SDS011;90;48.810;9.120;2024-02-26T11:43:04;4.83;;;3.20;;
209;SDS011;90;48.810;9.120;2024-02-26T11:45:54;3.40;;;3.20;;
209;SDS011;90;48.810;9.120;2024-02-26T11:48:28;3.10;;;2.90;;
209;SDS011;90;48.810;9.120;2024-02-26T11:50:55;5.43;;;3.17;;
209;SDS011;90;48.810;9.120;2024-02-26T11:53:25;3.90;;;3.50;;
209;SDS011;90;48.810;9.120;2024-02-26T11:58:57;5.03;;;3.30;;
209;SDS011;90;48.810;9.120;2024-02-26T12:01:35;4.83;;;3.30;;
209;SDS011;90;48.810;9.120;2024-02-26T12:04:12;3.70;;;3.13;;
209;SDS011;90;48.810;9.120;2024-02-26T12:06:56;4.27;;;3.20;;
209;SDS011;90;48.810;9.120;2024-02-26T12:09:41;3.30;;;3.10;;
209;SDS011;90;48.810;9.120;2024-02-26T12:12:09;3.50;;;3.30;;
209;SDS011;90;48.810;9.120;2024-02-26T12:14:52;5.37;;;3.50;;
209;SDS011;90;48.810;9.120;2024-02-26T12:17:36;4.00;;;3.20;;
209;SDS011;90;48.810;9.120;2024-02-26T12:20:12;3.43;;;3.23;;
209;SDS011;90;48.810;9.120;2024-02-26T12:22:46;5.60;;;3.50;;
209;SDS011;90;48.810;9.120;2024-02-26T12:26:12;3.60;;;2.90;;
209;SDS011;90;48.810;9.120;2024-02-26T12:29:02;2.80;;;2.50;;
209;SDS011;90;48.810;9.120;2024-02-26T12:31:51;6.03;;;3.10;;
209;SDS011;90;48.810;9.120;2024-02-26T12:34:30;4.03;;;3.50;;
209;SDS011;90;48.810;9.120;2024-02-26T12:37:12;3.43;;;3.03;;
209;SDS011;90;48.810;9.120;2024-02-26T12:39:48;3.13;;;2.80;;
209;SDS011;90;48.810;9.120;2024-02-26T12:42:22;4.20;;;3.07;;
209;SDS011;90;48.810;9.120;2024-02-26T12:44:50;3.90;;;3.10;;
209;SDS011;90;48.810;9.120;2024-02-26T12:47:24;3.60;;;3.37;;
209;SDS011;90;48.810;9.120;2024-02-26T12:49:52;3.77;;;3.57;;
209;SDS011;90;48.810;9.120;2024-02-26T12:52:32;4.77;;;3.30;;
209;SDS011;90;48.810;9.120;2024-02-26T12:55:09;4.10;;;3.37;;
209;SDS011;90;48.810;9.120;2024-02-26T12:57:39;4.10;;;3.07;;
209;SDS011;90;48.810;9.120;2024-02-26T13:00:08;3.70;;;3.10;;
209;SDS011;90;48.810;9.120;2024-02-26T13:02:41;2.97;;;2.77;;
209;SDS011;90;48.810;9.120;2024-02-26T13:05:12;7.73;;;3.40;;
209;SDS011;90;48.810;9.120;2024-02-26T13:07:56;3.90;;;2.90;;
209;SDS011;90;48.810;9.120;2024-02-26T13:10:37;3.60;;;2.97;;
209;SDS011;90;48.810;9.120;2024-02-26T13:13:12;3.00;;;2.80;;
209;SDS011;90;48.810;9.120;2024-02-26T13:16:03;4.17;;;3.07;;
209;SDS011;90;48.810;9.120;2024-02-26T13:21:47;4.60;;;2.60;;
209;SDS011;90;48.810;9.120;2024-02-26T13:24:16;3.57;;;2.60;;
209;SDS011;90;48.810;9.120;2024-02-26T13:26:44;4.40;;;2.90;;
209;SDS011;90;48.810;9.120;2024-02-26T13:29:16;3.00;;;2.83;;
209;SDS011;90;48.810;9.120;2024-02-26T13:31:43;3.37;;;2.57;;
209;SDS011;90;48.810;9.120;2024-02-26T13:34:10;2.97;;;2.70;;
209;SDS011;90;48.810;9.120;2024-02-26T13:36:37;2.83;;;2.50;;
209;SDS011;90;48.810;9.120;2024-02-26T13:39:03;2.63;;;2.17;;
209;SDS011;90;48.810;9.120;2024-02-26T13:41:32;3.17;;;2.60;;
209;SDS011;90;48.810;9.120;2024-02-26T13:43:59;6.33;;;2.90;;
209;SDS011;90;48.810;9.120;2024-02-26T13:46:26;2.60;;;2.40;;
209;SDS011;90;48.810;9.120;2024-02-26T13:48:53;2.43;;;2.23;;
209;SDS011;90;48.810;9.120;2024-02-26T13:51:20;5.47;;;2.60;;
209;SDS011;90;48.810;9.120;2024-02-26T13:53:47;3.23;;;2.83;;
209;SDS011;90;48.810;9.120;2024-02-26T13:56:13;2.60;;;2.10;;
209;SDS011;90;48.810;9.120;2024-02-26T13:58:41;2.67;;;2.10;;
209;SDS011;90;48.810;9.120;2024-02-26T14:01:08;4.50;;;2.20;;
209;SDS011;90;48.810;9.120;2024-02-26T14:03:35;2.50;;;2.30;;
209;SDS011;90;48.810;9.120;2024-02-26T14:06:01;4.33;;;2.30;;
209;SDS011;90;48.810;9.120;2024-02-26T14:08:28;2.57;;;2.40;;
209;SDS011;90;48.810;9.120;2024-02-26T14:10:55;2.43;;;2.17;;
209;SDS011;90;48.810;9.120;2024-02-26T14:13:22;5.07;;;2.60;;
209;SDS011;90;48.810;9.120;2024-02-26T14:15:50;3.17;;;2.40;;
209;SDS011;90;48.810;9.120;2024-02-26T14:18:21;2.43;;;2.30;;
209;SDS011;90;48.810;9.120;2024-02-26T14:20:48;2.20;;;2.10;;
209;SDS011;90;48.810;9.120;2024-02-26T14:23:14;3.77;;;2.23;;
209;SDS011;90;48.810;9.120;2024-02-26T14:25:41;2.30;;;1.90;;
209;SDS011;90;48.810;9.120;2024-02-26T14:28:08;3.33;;;2.17;;
209;SDS011;90;48.810;9.120;2024-02-26T14:30:35;2.43;;;2.20;;
209;SDS011;90;48.810;9.120;2024-02-26T14:33:03;3.70;;;2.20;;
209;SDS011;90;48.810;9.120;2024-02-26T14:35:30;2.67;;;2.30;;
209;SDS011;90;48.810;9.120;2024-02-26T14:37:57;4.43;;;1.80;;
209;SDS011;90;48.810;9.120;2024-02-26T14:40:26;4.80;;;2.10;;
209;SDS011;90;48.810;9.120;2024-02-26T14:42:52;2.30;;;2.00;;
209;SDS011;90;48.810;9.120;2024-02-26T14:45:21;2.07;;;1.90;;
209;SDS011;90;48.810;9.120;2024-02-26T14:47:49;2.50;;;2.20;;
209;SDS011;90;48.810;9.120;2024-02-26T14:50:17;2.30;;;1.90;;
209;SDS011;90;48.810;9.120;2024-02-26T14:52:44;1.90;;;1.80;;
209;SDS011;90;48.810;9.120;2024-02-26T14:55:10;2.43;;;2.23;;
209;SDS011;90;48.810;9.120;2024-02-26T14:57:37;2.93;;;1.80;;
209;SDS011;90;48.810;9.120;2024-02-26T15:00:05;2.33;;;2.00;;
209;SDS011;90;48.810;9.120;2024-02-26T15:02:32;1.93;;;1.73;;
209;SDS011;90;48.810;9.120;2024-02-26T15:04:59;1.90;;;1.80;;
209;SDS011;90;48.810;9.120;2024-02-26T15:07:28;2.00;;;1.40;;
209;SDS011;90;48.810;9.120;2024-02-26T15:09:54;1.90;;;1.60;;
209;SDS011;90;48.810;9.120;2024-02-26T15:12:24;1.80;;;1.43;;
209;SDS011;90;48.810;9.120;2024-02-26T15:14:51;2.20;;;1.80;;
209;SDS011;90;48.810;9.120;2024-02-26T15:17:17;4.03;;;2.00;;
209;SDS011;90;48.810;9.120;2024-02-26T15:19:45;2.10;;;1.53;;
209;SDS011;90;48.810;9.120;2024-02-26T15:22:12;2.80;;;1.80;;
209;SDS011;90;48.810;9.120;2024-02-26T15:24:40;3.87;;;1.70;;
209;SDS011;90;48.810;9.120;2024-02-26T15:27:09;2.00;;;1.57;;
209;SDS011;90;48.810;9.120;2024-02-26T15:29:37;2.67;;;2.00;;
209;SDS011;90;48.810;9.120;2024-02-26T15:32:15;3.53;;;1.80;;
209;SDS011;90;48.810;9.120;2024-02-26T15:34:51;2.00;;;1.67;;
209;SDS011;90;48.810;9.120;2024-02-26T15:37:31;1.90;;;1.63;;
209;SDS011;90;48.810;9.120;2024-02-26T15:40:09;2.07;;;1.80;;
209;SDS011;90;48.810;9.120;2024-02-26T15:42:37;2.00;;;1.60;;
209;SDS011;90;48.810;9.120;2024-02-26T15:45:07;2.00;;;1.80;;
209;SDS011;90;48.810;9.120;2024-02-26T15:47:36;1.90;;;1.50;;
209;SDS011;90;48.810;9.120;2024-02-26T15:50:08;1.97;;;1.80;;
209;SDS011;90;48.810;9.120;2024-02-26T15:52:36;3.37;;;2.37;;
209;SDS011;90;48.810;9.120;2024-02-26T15:55:04;1.87;;;1.63;;
209;SDS011;90;48.810;9.120;2024-02-26T15:57:33;2.67;;;1.70;;
209;SDS011;90;48.810;9.120;2024-02-26T16:00:01;2.43;;;1.90;;
209;SDS011;90;48.810;9.120;2024-02-26T16:02:35;2.70;;;1.80;;
209;SDS011;90;48.810;9.120;2024-02-26T16:05:02;3.80;;;1.90;;
209;SDS011;90;48.810;9.120;2024-02-26T16:07:36;4.73;;;1.80;;
209;SDS011;90;48.810;9.120;2024-02-26T16:10:10;2.43;;;2.23;;
209;SDS011;90;48.810;9.120;2024-02-26T16:19:37;2.23;;;2.07;;